This is the latest recevied weather packets stored in our database for station/object OK4PZ-5. If no packets are shown the sender has not sent any weather packets the latest 10 day(s).
| Time | Temp. | Humidity | Pressure | Rain* | Wind** | Luminosity | Snow |
|---|---|---|---|---|---|---|---|
| 1777333502 | 2.78° C | 81% | 1022 hPa | 0 mm | - | - | - |
| 1777332602 | 2.78° C | 80% | 1022 hPa | 0 mm | - | - | - |
| 1777331702 | 3.33° C | 81% | 1022 hPa | 0 mm | - | - | - |
| 1777330802 | 3.89° C | 79% | 1022 hPa | 0 mm | - | - | - |
| 1777329903 | 3.33° C | 80% | 1022 hPa | 0 mm | - | - | - |
| 1777329002 | 3.89° C | 78% | 1022 hPa | 0 mm | - | - | - |
| 1777328102 | 5° C | 74% | 1022 hPa | 0 mm | - | - | - |
| 1777327202 | 5.56° C | 74% | 1022 hPa | 0 mm | - | - | - |
| 1777326302 | 5.56° C | 73% | 1022 hPa | 0 mm | - | - | - |
| 1777325402 | 5.56° C | 72% | 1022 hPa | 0 mm | - | - | - |
| 1777324502 | 6.67° C | 68% | 1022 hPa | 0 mm | - | - | - |
| 1777323602 | 7.22° C | 64% | 1022 hPa | 0 mm | - | - | - |
| 1777322702 | 7.78° C | 63% | 1022 hPa | 0 mm | - | - | - |
| 1777321802 | 8.33° C | 60% | 1022 hPa | 0 mm | - | - | - |
| 1777320902 | 8.89° C | 53% | 1022 hPa | 0 mm | - | - | - |
| 1777320002 | 10° C | 49% | 1022 hPa | 0 mm | - | - | - |
| 1777319103 | 10.56° C | 45% | 1022 hPa | 0 mm | - | - | - |
| 1777318202 | 10.56° C | 45% | 1022 hPa | 0 mm | - | - | - |
| 1777317302 | 11.11° C | 43% | 1022 hPa | 0 mm | - | - | - |
| 1777316402 | 11.67° C | 43% | 1022 hPa | 0 mm | - | - | - |
| 1777315502 | 12.22° C | 43% | 1022 hPa | 0 mm | - | - | - |
| 1777314602 | 12.22° C | 43% | 1022 hPa | 0 mm | - | - | - |
| 1777313702 | 12.78° C | 41% | 1022 hPa | 0 mm | - | - | - |
| 1777312802 | 13.33° C | 40% | 1021 hPa | 0 mm | - | - | - |
| 1777311903 | 13.89° C | 38% | 1021 hPa | 0 mm | - | - | - |
* Rain latest hour (hover to see other rain measurements)
** Current wind speed in m/s (hover to see current wind gust speed)